createdAt,value
2018-04-26T00:00:45.146Z,22.90
2018-04-26T00:01:45.155Z,23.10
2018-04-26T00:02:45.167Z,20.60
2018-04-26T00:03:45.188Z,22.50
2018-04-26T00:04:45.207Z,20.20
2018-04-26T00:05:45.243Z,21.80
2018-04-26T00:06:45.254Z,21.50
2018-04-26T00:07:45.269Z,20.60
2018-04-26T00:08:45.295Z,20.10
2018-04-26T00:09:45.311Z,21.10
2018-04-26T00:10:45.344Z,20.90
2018-04-26T00:11:45.348Z,20.80
2018-04-26T00:12:45.370Z,21.20
2018-04-26T00:13:45.389Z,20.70
2018-04-26T00:14:45.407Z,23.10
2018-04-26T00:15:45.428Z,20.00
2018-04-26T00:16:45.452Z,20.80
2018-04-26T00:17:45.474Z,19.10
2018-04-26T00:18:45.482Z,20.20
2018-04-26T00:19:45.506Z,21.40
2018-04-26T00:20:45.526Z,19.40
2018-04-26T00:21:45.550Z,19.70
2018-04-26T00:22:45.569Z,19.30
2018-04-26T00:23:45.579Z,18.80
2018-04-26T00:24:45.615Z,20.60
2018-04-26T00:25:45.626Z,21.30
2018-04-26T00:26:45.654Z,20.20
2018-04-26T00:27:45.656Z,19.60
2018-04-26T00:28:45.682Z,19.10
2018-04-26T00:29:45.707Z,20.20
2018-04-26T00:30:45.721Z,19.70
2018-04-26T00:31:45.746Z,19.80
2018-04-26T00:32:45.765Z,19.80
2018-04-26T00:33:45.788Z,21.60
2018-04-26T00:34:45.794Z,20.80
2018-04-26T00:35:45.820Z,19.10
2018-04-26T00:36:45.841Z,20.60
2018-04-26T00:37:45.862Z,17.70
2018-04-26T00:38:45.880Z,18.60
2018-04-26T00:39:45.908Z,18.70
2018-04-26T00:40:45.913Z,17.70
2018-04-26T00:41:45.946Z,19.30
2018-04-26T00:42:45.969Z,20.50
2018-04-26T00:43:45.972Z,18.30
2018-04-26T00:44:45.991Z,19.20
2018-04-26T00:45:46.017Z,18.20
2018-04-26T00:46:46.045Z,18.20
2018-04-26T00:47:46.054Z,18.60
2018-04-26T00:48:46.123Z,18.70
2018-04-26T00:49:46.105Z,19.20
2018-04-26T00:50:46.112Z,18.80
2018-04-26T00:51:46.134Z,19.00
2018-04-26T00:52:46.166Z,18.60
2018-04-26T00:53:46.179Z,19.20
2018-04-26T00:54:46.194Z,17.20
2018-04-26T00:55:46.217Z,17.80
2018-04-26T00:56:46.232Z,19.60
2018-04-26T00:57:46.260Z,17.50
2018-04-26T00:58:46.271Z,19.20
2018-04-26T00:59:46.290Z,19.30
2018-04-26T01:00:46.301Z,18.20
2018-04-26T01:01:46.334Z,18.20
2018-04-26T01:02:46.355Z,19.40
2018-04-26T01:03:46.382Z,17.70
2018-04-26T01:04:46.389Z,18.80
2018-04-26T01:05:46.407Z,17.90
2018-04-26T01:06:46.432Z,18.20
2018-04-26T01:07:46.461Z,18.40
2018-04-26T01:08:46.459Z,17.90
2018-04-26T01:09:46.487Z,19.00
2018-04-26T01:10:46.517Z,17.40
2018-04-26T01:11:46.528Z,16.90
2018-04-26T01:12:46.555Z,18.00
2018-04-26T01:13:46.582Z,17.80
2018-04-26T01:14:46.592Z,19.40
2018-04-26T01:15:46.604Z,16.90
2018-04-26T01:16:46.623Z,18.60
2018-04-26T01:17:46.657Z,19.00
2018-04-26T01:18:46.670Z,17.40
2018-04-26T01:19:46.685Z,18.30
2018-04-26T01:20:46.714Z,16.40
2018-04-26T01:21:46.731Z,17.80
2018-04-26T01:22:46.738Z,16.60
2018-04-26T01:23:46.774Z,17.40
2018-04-26T01:24:46.786Z,16.80
2018-04-26T01:25:46.803Z,18.20
2018-04-26T01:26:46.832Z,18.80
2018-04-26T01:27:46.851Z,17.80
2018-04-26T01:28:46.862Z,17.70
2018-04-26T01:29:46.886Z,15.70
2018-04-26T01:30:46.906Z,16.40
2018-04-26T01:31:46.926Z,15.60
2018-04-26T01:32:46.937Z,19.60
2018-04-26T01:33:46.963Z,16.00
2018-04-26T01:34:46.977Z,16.00
2018-04-26T01:35:47.002Z,16.90
2018-04-26T01:36:47.019Z,16.30
2018-04-26T01:37:47.059Z,17.20
2018-04-26T01:38:47.075Z,15.80
2018-04-26T01:39:47.090Z,16.70
2018-04-26T01:40:47.090Z,17.00
2018-04-26T01:41:47.119Z,16.50
2018-04-26T01:42:47.139Z,16.10
2018-04-26T01:43:47.153Z,16.80
2018-04-26T01:44:47.175Z,16.00
2018-04-26T01:45:47.197Z,16.20
2018-04-26T01:46:47.251Z,17.60
2018-04-26T01:47:47.238Z,15.90
2018-04-26T01:48:47.246Z,16.70
2018-04-26T01:49:47.270Z,15.40
2018-04-26T01:50:47.289Z,16.00
2018-04-26T01:51:47.313Z,16.20
2018-04-26T01:52:47.328Z,17.80
2018-04-26T01:53:47.350Z,15.20
2018-04-26T01:54:47.370Z,15.70
2018-04-26T01:55:47.389Z,15.20
2018-04-26T01:56:47.403Z,15.80
2018-04-26T01:57:47.424Z,16.00
2018-04-26T01:58:47.453Z,15.10
2018-04-26T01:59:47.477Z,16.00
2018-04-26T02:00:47.488Z,14.80
2018-04-26T02:01:47.515Z,15.30
2018-04-26T02:02:47.529Z,15.00
2018-04-26T02:03:47.542Z,15.10
2018-04-26T02:04:47.560Z,15.60
2018-04-26T02:05:47.587Z,17.10
2018-04-26T02:06:47.616Z,14.80
2018-04-26T02:07:47.626Z,15.10
2018-04-26T02:08:47.650Z,16.20
2018-04-26T02:09:47.670Z,14.80
2018-04-26T02:10:47.679Z,16.00
2018-04-26T02:11:47.705Z,15.40
2018-04-26T02:12:47.727Z,14.90
2018-04-26T02:13:47.740Z,14.60
2018-04-26T02:14:47.759Z,15.40
2018-04-26T02:15:47.785Z,14.90
2018-04-26T02:16:47.805Z,16.40
2018-04-26T02:17:47.852Z,15.60
2018-04-26T02:18:47.844Z,14.40
2018-04-26T02:19:47.880Z,13.90
2018-04-26T02:20:47.893Z,14.40
2018-04-26T02:21:47.898Z,14.60
2018-04-26T02:22:47.932Z,15.30
2018-04-26T02:23:47.944Z,15.70
2018-04-26T02:24:47.953Z,15.40
2018-04-26T02:25:47.995Z,15.00
2018-04-26T02:26:48.016Z,14.70
2018-04-26T02:27:48.029Z,15.30
2018-04-26T02:28:48.055Z,14.60
2018-04-26T02:29:48.075Z,14.90
2018-04-26T02:30:48.074Z,13.80
2018-04-26T02:31:48.094Z,13.80
2018-04-26T02:32:48.115Z,13.90
2018-04-26T02:33:48.140Z,13.60
2018-04-26T02:34:48.158Z,14.10
2018-04-26T02:35:48.192Z,15.10
2018-04-26T02:36:48.205Z,14.20
2018-04-26T02:37:48.211Z,14.60
2018-04-26T02:38:48.238Z,15.70
2018-04-26T02:39:48.251Z,13.80
2018-04-26T02:40:48.271Z,14.90
2018-04-26T02:41:48.361Z,15.60
2018-04-26T02:42:48.315Z,15.10
2018-04-26T02:43:48.335Z,14.40
2018-04-26T02:44:48.346Z,16.50
2018-04-26T02:45:48.444Z,15.50
2018-04-26T02:46:48.390Z,13.30
2018-04-26T02:47:48.408Z,14.40
2018-04-26T02:48:48.427Z,13.80
2018-04-26T02:49:48.449Z,14.00
2018-04-26T02:50:48.481Z,13.80
2018-04-26T02:51:48.489Z,15.00
2018-04-26T02:52:48.502Z,13.70
2018-04-26T02:53:48.532Z,14.00
2018-04-26T02:54:48.541Z,14.80
2018-04-26T02:55:48.555Z,13.90
2018-04-26T02:56:48.586Z,13.90
2018-04-26T02:57:48.605Z,14.10
2018-04-26T02:58:48.619Z,15.00
2018-04-26T02:59:48.643Z,14.70
2018-04-26T03:00:48.655Z,14.70
2018-04-26T03:01:48.690Z,13.80
2018-04-26T03:02:48.751Z,13.90
2018-04-26T03:03:48.714Z,13.30
2018-04-26T03:04:48.732Z,14.20
2018-04-26T03:05:48.760Z,13.70
2018-04-26T03:06:48.786Z,14.00
2018-04-26T03:07:48.807Z,14.80
2018-04-26T03:08:48.825Z,13.80
2018-04-26T03:09:48.829Z,15.40
2018-04-26T03:10:48.858Z,13.30
2018-04-26T03:11:48.874Z,14.70
2018-04-26T03:12:48.900Z,13.80
2018-04-26T03:13:48.951Z,13.20
2018-04-26T03:14:48.929Z,12.80
2018-04-26T03:15:48.956Z,14.00
2018-04-26T03:16:48.972Z,13.50
2018-04-26T03:17:48.996Z,15.40
2018-04-26T03:18:49.014Z,13.70
2018-04-26T03:19:49.023Z,13.50
2018-04-26T03:20:49.051Z,14.10
2018-04-26T03:21:49.155Z,14.00
2018-04-26T03:22:49.100Z,14.30
2018-04-26T03:23:49.104Z,12.80
2018-04-26T03:24:49.125Z,13.20
2018-04-26T03:25:49.148Z,14.70
2018-04-26T03:26:49.171Z,13.10
2018-04-26T03:27:49.181Z,12.60
2018-04-26T03:28:49.198Z,13.00
2018-04-26T03:29:49.233Z,13.40
2018-04-26T03:30:49.246Z,13.90
2018-04-26T03:31:49.261Z,13.40
2018-04-26T03:32:49.281Z,13.10
2018-04-26T03:33:49.303Z,12.90
2018-04-26T03:34:49.325Z,13.00
2018-04-26T03:35:49.342Z,12.90
2018-04-26T03:36:49.363Z,12.90
2018-04-26T03:37:49.388Z,13.10
2018-04-26T03:38:49.416Z,12.80
2018-04-26T03:39:49.421Z,13.50
2018-04-26T03:40:49.444Z,12.80
2018-04-26T03:41:49.462Z,12.50
2018-04-26T03:42:49.484Z,13.60
2018-04-26T03:43:49.504Z,13.10
2018-04-26T03:44:49.519Z,12.80
2018-04-26T03:45:49.534Z,12.50
2018-04-26T03:46:49.567Z,13.90
2018-04-26T03:47:49.586Z,13.10
2018-04-26T03:48:49.597Z,12.30
2018-04-26T03:49:49.621Z,12.60
2018-04-26T03:50:49.644Z,12.40
2018-04-26T03:51:49.650Z,12.70
2018-04-26T03:52:49.678Z,12.40
2018-04-26T03:53:49.723Z,12.50
2018-04-26T03:54:49.718Z,12.20
2018-04-26T03:55:49.734Z,13.70
2018-04-26T03:56:49.753Z,13.10
2018-04-26T03:57:49.765Z,13.10
2018-04-26T03:58:49.797Z,12.70
2018-04-26T03:59:49.816Z,14.00
2018-04-26T04:00:49.833Z,12.60
2018-04-26T04:01:49.856Z,12.00
2018-04-26T04:02:49.897Z,12.40
2018-04-26T04:03:49.885Z,12.30
2018-04-26T04:04:49.911Z,12.10
2018-04-26T04:05:49.962Z,12.30
2018-04-26T04:06:49.959Z,12.10
2018-04-26T04:07:49.972Z,13.00
2018-04-26T04:08:49.992Z,12.20
2018-04-26T04:09:50.012Z,12.30
2018-04-26T04:10:50.044Z,12.70
2018-04-26T04:11:50.044Z,11.90
2018-04-26T04:12:50.071Z,12.40
2018-04-26T04:13:50.154Z,11.70
2018-04-26T04:14:50.107Z,13.00
2018-04-26T04:15:50.125Z,12.10
2018-04-26T04:16:50.141Z,11.80
2018-04-26T04:17:50.168Z,12.70
2018-04-26T04:18:50.191Z,12.20
2018-04-26T04:19:50.200Z,12.30
2018-04-26T04:20:50.228Z,12.40
2018-04-26T04:21:50.247Z,12.20
2018-04-26T04:22:50.261Z,12.60
2018-04-26T04:23:50.287Z,12.20
2018-04-26T04:24:50.301Z,12.10
2018-04-26T04:25:50.324Z,11.70
2018-04-26T04:26:50.338Z,13.80
2018-04-26T04:27:50.359Z,11.70
2018-04-26T04:28:50.416Z,12.00
2018-04-26T04:29:50.393Z,11.70
2018-04-26T04:30:50.410Z,12.20
2018-04-26T04:31:50.438Z,11.60
2018-04-26T04:32:50.458Z,12.70
2018-04-26T04:33:50.475Z,13.10
2018-04-26T04:34:50.497Z,11.90
2018-04-26T04:35:50.517Z,11.80
2018-04-26T04:36:50.542Z,11.50
2018-04-26T04:37:50.556Z,11.70
2018-04-26T04:38:50.571Z,11.50
2018-04-26T04:39:50.592Z,12.20
2018-04-26T04:40:50.619Z,11.30
2018-04-26T04:41:50.635Z,11.80
2018-04-26T04:42:50.649Z,11.90
2018-04-26T04:43:50.686Z,11.80
2018-04-26T04:44:50.695Z,11.50
2018-04-26T04:45:50.723Z,12.70
2018-04-26T04:46:50.720Z,11.30
2018-04-26T04:47:50.750Z,11.70
2018-04-26T04:48:50.772Z,11.50
2018-04-26T04:49:50.790Z,10.90
2018-04-26T04:50:50.812Z,11.70
2018-04-26T04:51:50.830Z,12.00
2018-04-26T04:52:50.851Z,11.00
2018-04-26T04:53:50.868Z,11.20
2018-04-26T04:54:50.889Z,11.10
2018-04-26T04:55:50.910Z,11.60
2018-04-26T04:56:50.920Z,11.20
2018-04-26T04:57:50.944Z,11.90
2018-04-26T04:58:50.962Z,11.60
2018-04-26T04:59:51.000Z,12.50
2018-04-26T05:00:51.001Z,10.90
2018-04-26T05:01:51.026Z,11.40
2018-04-26T05:02:51.051Z,11.10
2018-04-26T05:03:51.065Z,10.80
2018-04-26T05:04:51.075Z,11.40
2018-04-26T05:05:51.099Z,11.80
2018-04-26T05:06:51.130Z,13.90
2018-04-26T05:07:51.139Z,11.40
2018-04-26T05:08:51.173Z,11.30
2018-04-26T05:09:51.174Z,11.60
2018-04-26T05:10:51.187Z,10.90
2018-04-26T05:11:51.223Z,10.80
2018-04-26T05:12:51.235Z,10.80
2018-04-26T05:13:51.302Z,12.10
2018-04-26T05:14:51.275Z,12.10
2018-04-26T05:15:51.333Z,10.30
2018-04-26T05:16:51.347Z,11.00
2018-04-26T05:17:51.361Z,10.60
2018-04-26T05:18:51.348Z,10.20
2018-04-26T05:19:51.370Z,11.60
2018-04-26T05:20:51.390Z,10.40
2018-04-26T05:21:51.414Z,10.20
2018-04-26T05:22:51.448Z,10.30
2018-04-26T05:23:51.496Z,9.80
2018-04-26T05:24:51.519Z,10.10
2018-04-26T05:25:51.479Z,9.60
2018-04-26T05:26:51.512Z,10.00
2018-04-26T05:27:51.529Z,10.10
2018-04-26T05:28:51.550Z,9.80
2018-04-26T05:29:51.578Z,9.90
2018-04-26T05:30:51.588Z,10.50
2018-04-26T05:31:51.600Z,10.40
2018-04-26T05:32:51.727Z,10.70
2018-04-26T05:33:51.674Z,10.10
2018-04-26T05:34:51.665Z,10.30
2018-04-26T05:35:51.682Z,9.80
2018-04-26T05:36:51.705Z,9.90
2018-04-26T05:37:51.725Z,9.90
2018-04-26T05:38:51.745Z,9.70
2018-04-26T05:39:51.760Z,9.80
2018-04-26T05:40:51.777Z,9.80
2018-04-26T05:41:51.795Z,9.70
2018-04-26T05:42:51.825Z,9.50
2018-04-26T05:43:51.853Z,10.10
2018-04-26T05:44:51.862Z,9.00
2018-04-26T05:45:51.880Z,6.90
2018-04-26T05:46:51.905Z,13.00
2018-04-26T05:47:51.930Z,10.00
2018-04-26T05:48:51.935Z,9.20
2018-04-26T05:49:51.955Z,8.40
2018-04-26T05:50:51.994Z,9.20
2018-04-26T05:51:51.994Z,10.70
2018-04-26T05:52:52.014Z,10.10
2018-04-26T05:53:52.032Z,10.30
2018-04-26T05:54:52.050Z,10.50
2018-04-26T05:55:52.124Z,10.40
2018-04-26T05:56:52.098Z,8.80
2018-04-26T05:57:52.103Z,11.80
2018-04-26T05:58:52.118Z,10.10
2018-04-26T05:59:52.157Z,10.20
2018-04-26T06:00:52.167Z,12.00
2018-04-26T06:01:52.188Z,10.10
2018-04-26T06:02:52.207Z,10.70
2018-04-26T06:03:52.337Z,11.10
2018-04-26T06:04:52.244Z,9.30
2018-04-26T06:05:52.262Z,8.80
2018-04-26T06:06:52.275Z,8.90
2018-04-26T06:07:52.299Z,8.50
2018-04-26T06:08:52.323Z,8.00
2018-04-26T06:09:52.341Z,10.30
2018-04-26T06:10:52.358Z,8.90
2018-04-26T06:11:52.379Z,9.30
2018-04-26T06:12:52.407Z,9.90
2018-04-26T06:13:52.414Z,8.90
2018-04-26T06:14:52.431Z,8.80
2018-04-26T06:15:52.489Z,8.90
2018-04-26T06:16:52.565Z,9.80
2018-04-26T06:17:52.500Z,8.60
2018-04-26T06:18:52.507Z,9.90
2018-04-26T06:19:52.534Z,8.70
2018-04-26T06:20:52.558Z,10.60
2018-04-26T06:21:52.578Z,9.60
2018-04-26T06:22:52.586Z,8.80
2018-04-26T06:23:52.604Z,9.30
2018-04-26T06:24:52.628Z,9.20
2018-04-26T06:25:52.647Z,9.10
2018-04-26T06:26:52.660Z,8.60
2018-04-26T06:27:52.678Z,8.00
2018-04-26T06:28:52.707Z,8.60
2018-04-26T06:29:52.717Z,8.90
2018-04-26T06:30:52.746Z,8.80
2018-04-26T06:31:52.765Z,9.00
2018-04-26T06:32:52.800Z,8.70
2018-04-26T06:33:52.808Z,10.70
2018-04-26T06:34:52.826Z,8.70
2018-04-26T06:35:52.834Z,8.70
2018-04-26T06:36:52.915Z,8.60
2018-04-26T06:37:52.887Z,8.40
2018-04-26T06:38:52.902Z,10.10
2018-04-26T06:39:52.928Z,8.60
2018-04-26T06:40:52.940Z,11.60
2018-04-26T06:41:52.985Z,8.90
2018-04-26T06:42:52.979Z,8.30
2018-04-26T06:43:53.000Z,9.50
2018-04-26T06:44:53.016Z,9.30
2018-04-26T06:45:53.040Z,8.80
2018-04-26T06:46:53.053Z,8.40
2018-04-26T06:47:53.147Z,8.00
2018-04-26T06:48:53.101Z,9.70
2018-04-26T06:49:53.121Z,8.00
2018-04-26T06:50:53.136Z,8.70
2018-04-26T06:51:53.157Z,8.40
2018-04-26T06:52:53.172Z,7.80
2018-04-26T06:53:53.222Z,8.00
2018-04-26T06:54:53.225Z,8.90
2018-04-26T06:55:53.232Z,9.10
2018-04-26T06:56:53.256Z,7.80
2018-04-26T06:57:53.269Z,8.40
2018-04-26T06:58:53.294Z,9.50
2018-04-26T06:59:53.302Z,8.90
2018-04-26T07:00:53.328Z,8.90
2018-04-26T07:01:53.341Z,8.40
2018-04-26T07:02:53.379Z,8.50
2018-04-26T07:03:53.383Z,8.70
2018-04-26T07:04:53.408Z,9.20
2018-04-26T07:05:53.459Z,8.10
2018-04-26T07:06:53.438Z,7.60
2018-04-26T07:07:53.465Z,7.50
2018-04-26T07:08:53.499Z,9.60
2018-04-26T07:09:53.496Z,8.30
2018-04-26T07:10:53.524Z,7.90
2018-04-26T07:11:53.535Z,7.50
2018-04-26T07:12:53.558Z,9.10
2018-04-26T07:13:53.583Z,7.60
2018-04-26T07:14:53.596Z,8.60
2018-04-26T07:15:53.620Z,8.20
2018-04-26T07:16:53.636Z,7.70
2018-04-26T07:17:53.663Z,7.70
2018-04-26T07:18:53.679Z,10.20
2018-04-26T07:19:53.693Z,7.90
2018-04-26T07:20:53.717Z,7.80
2018-04-26T07:21:53.787Z,9.30
2018-04-26T07:22:53.754Z,8.30
2018-04-26T07:23:53.773Z,7.30
2018-04-26T07:24:53.792Z,7.50
2018-04-26T07:25:53.814Z,7.00
2018-04-26T07:26:53.830Z,8.00
2018-04-26T07:27:53.853Z,8.00
2018-04-26T07:28:53.875Z,7.90
2018-04-26T07:29:53.895Z,7.70
2018-04-26T07:30:53.910Z,9.00
2018-04-26T07:31:53.930Z,7.70
2018-04-26T07:32:53.950Z,7.70
2018-04-26T07:33:53.974Z,8.00
2018-04-26T07:34:54.039Z,8.30
2018-04-26T07:35:54.009Z,8.40
2018-04-26T07:36:54.028Z,8.80
2018-04-26T07:37:54.040Z,7.70
2018-04-26T07:38:54.069Z,7.00
2018-04-26T07:39:54.085Z,8.20
2018-04-26T07:40:54.097Z,7.30
2018-04-26T07:41:54.118Z,7.60
2018-04-26T07:42:54.144Z,7.80
2018-04-26T07:43:54.163Z,8.00
2018-04-26T07:44:54.177Z,7.40
2018-04-26T07:45:54.207Z,8.50
2018-04-26T07:46:54.224Z,6.70
2018-04-26T07:47:54.241Z,7.60
2018-04-26T07:48:54.261Z,6.50
2018-04-26T07:49:54.284Z,8.30
2018-04-26T07:50:54.312Z,7.20
2018-04-26T07:51:54.310Z,7.30
2018-04-26T07:52:54.336Z,8.10
2018-04-26T07:53:54.357Z,7.00
2018-04-26T07:54:54.377Z,7.80
2018-04-26T07:55:54.395Z,7.60
2018-04-26T07:56:54.418Z,7.10
2018-04-26T07:57:54.437Z,6.80
2018-04-26T07:58:54.456Z,7.30
2018-04-26T07:59:54.474Z,7.00
2018-04-26T08:00:54.498Z,6.50
2018-04-26T08:01:54.506Z,7.40
2018-04-26T08:02:54.536Z,6.90
2018-04-26T08:03:54.554Z,7.10
2018-04-26T08:04:54.574Z,6.70
2018-04-26T08:05:54.588Z,7.50
2018-04-26T08:06:54.604Z,6.60
2018-04-26T08:07:54.633Z,6.40
2018-04-26T08:08:54.645Z,7.70
2018-04-26T08:09:54.678Z,6.10
2018-04-26T08:10:54.693Z,7.10
2018-04-26T08:11:54.709Z,7.00
2018-04-26T08:12:54.737Z,7.10
2018-04-26T08:13:54.743Z,6.70
2018-04-26T08:14:54.767Z,7.10
2018-04-26T08:15:54.787Z,7.90
2018-04-26T08:16:54.807Z,6.60
2018-04-26T08:17:54.826Z,6.00
2018-04-26T08:18:54.844Z,7.30
2018-04-26T08:19:54.871Z,6.20
2018-04-26T08:20:54.887Z,6.80
2018-04-26T08:21:54.900Z,6.60
2018-04-26T08:22:54.921Z,6.80
2018-04-26T08:23:54.947Z,6.50
2018-04-26T08:24:54.973Z,6.20
2018-04-26T08:25:54.988Z,6.60
2018-04-26T08:26:55.002Z,6.90
2018-04-26T08:27:55.031Z,6.10
2018-04-26T08:28:55.033Z,6.70
2018-04-26T08:29:55.062Z,6.10
2018-04-26T08:30:55.077Z,8.50
2018-04-26T08:31:55.102Z,7.20
2018-04-26T08:32:55.118Z,7.10
2018-04-26T08:33:55.139Z,6.20
2018-04-26T08:34:55.153Z,7.00
2018-04-26T08:35:55.170Z,6.10
2018-04-26T08:36:55.206Z,7.30
2018-04-26T08:37:55.211Z,8.50
2018-04-26T08:38:55.239Z,7.00
2018-04-26T08:39:55.255Z,6.30
2018-04-26T08:40:55.278Z,6.30
2018-04-26T08:41:55.306Z,6.60
2018-04-26T08:42:55.323Z,6.60
2018-04-26T08:43:55.324Z,6.90
2018-04-26T08:44:55.374Z,7.10
2018-04-26T08:45:55.369Z,6.90
2018-04-26T08:46:55.390Z,6.80
2018-04-26T08:47:55.405Z,7.30
2018-04-26T08:48:55.432Z,6.60
2018-04-26T08:49:55.452Z,6.10
2018-04-26T08:50:55.472Z,6.90
2018-04-26T08:51:55.512Z,7.10
2018-04-26T08:52:55.521Z,7.20
2018-04-26T08:53:55.526Z,6.50
2018-04-26T08:54:55.539Z,5.90
2018-04-26T08:55:55.563Z,6.20
2018-04-26T08:56:55.584Z,7.40
2018-04-26T08:57:55.607Z,6.20
2018-04-26T08:58:55.629Z,7.80
2018-04-26T08:59:55.645Z,6.90
2018-04-26T09:00:55.665Z,6.20
2018-04-26T09:01:55.682Z,6.50
2018-04-26T09:02:55.717Z,6.70
2018-04-26T09:03:55.730Z,7.30
2018-04-26T09:04:55.737Z,6.20
2018-04-26T09:05:55.759Z,7.50
2018-04-26T09:06:55.783Z,6.50
2018-04-26T09:07:55.798Z,6.60
2018-04-26T09:08:55.833Z,6.30
2018-04-26T09:09:55.833Z,6.80
2018-04-26T09:10:55.852Z,5.90
2018-04-26T09:11:55.873Z,6.30
2018-04-26T09:12:55.922Z,6.60
2018-04-26T09:13:55.924Z,5.80
2018-04-26T09:14:55.943Z,6.00
2018-04-26T09:15:55.980Z,6.70
2018-04-26T09:16:55.976Z,6.30
2018-04-26T09:17:55.993Z,6.70
2018-04-26T09:18:56.005Z,6.10
2018-04-26T09:19:56.042Z,6.40
2018-04-26T09:20:56.062Z,7.40
2018-04-26T09:21:56.173Z,6.40
2018-04-26T09:22:56.101Z,6.30
2018-04-26T09:23:56.115Z,6.80
2018-04-26T09:24:56.145Z,7.60
2018-04-26T09:25:56.164Z,7.00
2018-04-26T09:26:56.170Z,5.90
2018-04-26T09:27:56.187Z,6.90
2018-04-26T09:28:56.212Z,6.00
2018-04-26T09:29:56.276Z,6.00
2018-04-26T09:30:56.255Z,6.90
2018-04-26T09:31:56.274Z,6.60
2018-04-26T09:32:56.304Z,6.20
2018-04-26T09:33:56.314Z,7.00
2018-04-26T09:34:56.328Z,6.10
2018-04-26T09:35:56.338Z,7.00
2018-04-26T09:36:56.367Z,6.50
2018-04-26T09:37:56.380Z,7.00
2018-04-26T09:38:56.396Z,5.80
2018-04-26T09:39:56.432Z,5.80
2018-04-26T09:40:56.443Z,5.70
2018-04-26T09:41:56.466Z,6.30
2018-04-26T09:42:56.499Z,7.20
2018-04-26T09:43:56.504Z,7.80
2018-04-26T09:44:56.532Z,6.10
2018-04-26T09:45:56.559Z,5.70
2018-04-26T09:46:56.565Z,6.20
2018-04-26T09:47:56.583Z,6.80
2018-04-26T09:48:56.620Z,5.80
2018-04-26T09:49:56.624Z,6.10
2018-04-26T09:50:56.636Z,6.10
2018-04-26T09:51:56.651Z,5.80
2018-04-26T09:52:56.699Z,6.90
2018-04-26T09:53:56.700Z,6.60
2018-04-26T09:54:56.725Z,6.30
2018-04-26T09:55:56.792Z,7.00
2018-04-26T09:56:56.759Z,7.40
2018-04-26T09:57:56.787Z,6.70
2018-04-26T09:58:56.799Z,5.80
2018-04-26T09:59:56.818Z,5.70
2018-04-26T10:00:56.861Z,7.10
2018-04-26T10:01:56.862Z,6.30
2018-04-26T10:02:56.873Z,6.20
2018-04-26T10:03:56.894Z,5.90
2018-04-26T10:04:56.936Z,6.20
2018-04-26T10:05:56.930Z,6.30
2018-04-26T10:06:56.958Z,6.10
2018-04-26T10:07:56.971Z,5.70
2018-04-26T10:08:56.998Z,5.70
2018-04-26T10:09:57.013Z,5.80
2018-04-26T10:10:57.020Z,6.00
2018-04-26T10:11:57.053Z,6.20
2018-04-26T10:12:57.090Z,5.90
2018-04-26T10:13:57.091Z,7.00
2018-04-26T10:14:57.115Z,6.20
2018-04-26T10:15:57.147Z,6.50
2018-04-26T10:16:57.168Z,6.50
2018-04-26T10:17:57.169Z,7.10
2018-04-26T10:18:57.194Z,6.60
2018-04-26T10:19:57.209Z,6.00
2018-04-26T10:20:57.243Z,5.80
2018-04-26T10:21:57.240Z,7.30
2018-04-26T10:22:57.259Z,5.50
2018-04-26T10:23:57.286Z,6.50
2018-04-26T10:24:57.315Z,6.20
2018-04-26T10:25:57.328Z,6.50
2018-04-26T10:26:57.340Z,6.00
2018-04-26T10:27:57.423Z,5.90
2018-04-26T10:28:57.381Z,6.10
2018-04-26T10:29:57.479Z,6.60
2018-04-26T10:30:57.423Z,6.10
2018-04-26T10:31:57.441Z,6.10
2018-04-26T10:32:57.468Z,5.90
2018-04-26T10:33:57.483Z,6.40
2018-04-26T10:34:57.504Z,5.40
2018-04-26T10:35:57.519Z,6.40
2018-04-26T10:36:57.547Z,5.30
2018-04-26T10:37:57.557Z,5.50
2018-04-26T10:38:57.582Z,6.00
2018-04-26T10:39:57.590Z,7.90
2018-04-26T10:40:57.616Z,5.60
2018-04-26T10:41:57.641Z,5.50
2018-04-26T10:42:57.656Z,6.10
2018-04-26T10:43:57.677Z,5.80
2018-04-26T10:44:57.698Z,6.00
2018-04-26T10:45:57.714Z,5.50
2018-04-26T10:46:57.733Z,5.70
2018-04-26T10:47:57.760Z,5.70
2018-04-26T10:48:57.784Z,5.90
2018-04-26T10:49:57.796Z,6.20
2018-04-26T10:50:57.815Z,5.20
2018-04-26T10:51:57.833Z,5.90
2018-04-26T10:52:57.917Z,5.70
2018-04-26T10:53:57.873Z,5.90
2018-04-26T10:54:57.895Z,6.00
2018-04-26T10:55:57.915Z,6.00
2018-04-26T10:56:57.937Z,6.10
2018-04-26T10:57:58.211Z,6.10
2018-04-26T10:58:57.984Z,6.00
2018-04-26T10:59:57.993Z,6.40
2018-04-26T11:00:58.016Z,5.60
2018-04-26T11:01:58.026Z,5.30
2018-04-26T11:02:58.049Z,5.60
2018-04-26T11:03:58.070Z,6.30
2018-04-26T11:04:58.115Z,5.30
2018-04-26T11:05:58.116Z,5.70
2018-04-26T11:06:58.126Z,6.20
2018-04-26T11:07:58.145Z,6.30
2018-04-26T11:08:58.171Z,5.70
2018-04-26T11:09:58.187Z,6.00
2018-04-26T11:10:58.201Z,5.90
2018-04-26T11:11:58.222Z,6.00
2018-04-26T11:12:58.253Z,6.30
2018-04-26T11:13:58.266Z,5.60
2018-04-26T11:14:58.292Z,5.50
2018-04-26T11:15:58.307Z,6.10
2018-04-26T11:16:58.356Z,5.60
2018-04-26T11:17:58.345Z,5.30
2018-04-26T11:18:58.373Z,5.90
2018-04-26T11:19:58.377Z,5.20
2018-04-26T11:20:58.405Z,5.30
2018-04-26T11:21:58.420Z,6.00
2018-04-26T11:22:58.438Z,5.60
2018-04-26T11:23:58.469Z,6.00
2018-04-26T11:24:58.482Z,5.50
2018-04-26T11:25:58.498Z,6.30
2018-04-26T11:26:58.520Z,5.70
2018-04-26T11:27:58.549Z,5.30
2018-04-26T11:28:58.567Z,6.10
2018-04-26T11:29:58.574Z,5.70
2018-04-26T11:30:58.616Z,5.30
2018-04-26T11:31:58.625Z,6.80
2018-04-26T11:32:58.640Z,5.60
2018-04-26T11:33:58.670Z,5.90
2018-04-26T11:34:58.690Z,5.90
2018-04-26T11:35:58.705Z,5.80
2018-04-26T11:36:58.719Z,5.50
2018-04-26T11:37:58.738Z,5.20
2018-04-26T11:38:58.754Z,5.50
2018-04-26T11:39:58.781Z,5.50
2018-04-26T11:40:58.810Z,5.50
2018-04-26T11:41:58.809Z,5.40
2018-04-26T11:42:58.832Z,5.80
2018-04-26T11:43:58.864Z,5.10
2018-04-26T11:44:58.882Z,5.30
2018-04-26T11:45:58.892Z,5.20
2018-04-26T11:46:58.918Z,5.20
2018-04-26T11:47:58.952Z,5.30
2018-04-26T11:48:58.954Z,5.30
2018-04-26T11:49:58.976Z,5.50
2018-04-26T11:50:59.049Z,6.20
2018-04-26T11:51:59.019Z,5.10
2018-04-26T11:52:59.033Z,5.20
2018-04-26T11:53:59.060Z,5.20
2018-04-26T11:54:59.082Z,5.20
2018-04-26T11:55:59.097Z,5.30
2018-04-26T11:56:59.112Z,5.80
2018-04-26T11:57:59.123Z,5.40
2018-04-26T11:58:59.157Z,5.20
2018-04-26T11:59:59.178Z,5.20
2018-04-26T12:00:59.198Z,5.60
2018-04-26T12:01:59.213Z,5.10
2018-04-26T12:02:59.237Z,5.10
2018-04-26T12:03:59.256Z,5.10
2018-04-26T12:04:59.285Z,4.70
2018-04-26T12:05:59.290Z,5.10
2018-04-26T12:06:59.317Z,5.10
2018-04-26T12:07:59.333Z,5.80
2018-04-26T12:08:59.360Z,5.30
2018-04-26T12:09:59.377Z,6.00
2018-04-26T12:10:59.385Z,5.20
2018-04-26T12:11:59.406Z,5.00
2018-04-26T12:12:59.432Z,5.30
2018-04-26T12:13:59.447Z,5.20
2018-04-26T12:14:59.471Z,5.50
2018-04-26T12:15:59.491Z,5.20
2018-04-26T12:16:59.522Z,5.20
2018-04-26T12:17:59.526Z,5.60
2018-04-26T12:18:59.547Z,5.10
2018-04-26T12:19:59.563Z,5.70
2018-04-26T12:20:59.585Z,5.20
2018-04-26T12:21:59.614Z,5.10
2018-04-26T12:22:59.728Z,5.00
2018-04-26T12:23:59.684Z,5.10
2018-04-26T12:24:59.671Z,5.00
2018-04-26T12:25:59.722Z,4.90
2018-04-26T12:26:59.729Z,4.80
2018-04-26T12:27:59.734Z,5.00
2018-04-26T12:28:59.750Z,5.30
2018-04-26T12:29:59.773Z,5.50
2018-04-26T12:30:59.790Z,4.80
2018-04-26T12:31:59.819Z,4.70
2018-04-26T12:32:59.836Z,4.70
2018-04-26T12:33:59.853Z,4.80
2018-04-26T12:34:59.875Z,5.20
2018-04-26T12:35:59.905Z,5.10
2018-04-26T12:36:59.908Z,5.20
2018-04-26T12:37:59.954Z,4.80
2018-04-26T12:38:59.954Z,5.20
2018-04-26T12:39:59.975Z,4.90
2018-04-26T12:40:59.995Z,5.50
2018-04-26T12:42:00.128Z,5.10
2018-04-26T12:43:00.053Z,4.70
2018-04-26T12:44:00.053Z,4.70
2018-04-26T12:45:00.084Z,4.60
2018-04-26T12:46:00.093Z,5.30
2018-04-26T12:47:00.114Z,5.00
2018-04-26T12:48:00.137Z,4.80
2018-04-26T12:49:00.155Z,5.00
2018-04-26T12:50:00.174Z,4.90
2018-04-26T12:51:00.201Z,4.60
2018-04-26T12:52:00.215Z,4.60
2018-04-26T12:53:00.241Z,4.70
2018-04-26T12:54:00.258Z,4.50
2018-04-26T12:55:00.283Z,4.80
2018-04-26T12:56:00.296Z,4.50
2018-04-26T12:57:00.318Z,4.90
2018-04-26T12:58:00.337Z,5.00
2018-04-26T12:59:00.352Z,5.00
2018-04-26T13:00:00.377Z,5.40
2018-04-26T13:01:00.398Z,5.00
2018-04-26T13:02:00.427Z,4.70
2018-04-26T13:03:00.441Z,5.10
2018-04-26T13:04:00.465Z,4.60
2018-04-26T13:05:00.480Z,4.70
2018-04-26T13:06:00.499Z,4.50
2018-04-26T13:07:00.517Z,4.50